KEYW

Details ICAO KEYW (EYW)
Name Key West Intl
Region United States
Timezone America/New_York (UTC-5.0)
Plans Departing 2416
Arriving 3290
Stats Elevation 0 ft / 0 m (AMSL)
Location 24.556100° -81.759900°
Runways 1
Magnetic Variation 6.223° W
Sunrise 2024-02-23 11:56:39 UTC / 2024-02-23 06:56:39 Local
Sunset 2024-02-23 23:27:14 UTC / 2024-02-23 18:27:14 Local
Advertisement - Login to hide

Runways

ID Width Length Bearing (true/mag) Surface Threshold Overrun Markings Lighting
09 98 ft / 30 m 5,080 ft / 1,548 m 89.38° / 95.60° ASPHALT 276 ft / 84 m 331 ft / 101 m APP EDGE THRESHOLD REIL-OMNI
27 98 ft / 30 m 5,080 ft / 1,548 m 269.38° / 275.61° ASPHALT 0 ft / 0 m 354 ft / 108 m APP EDGE THRESHOLD REIL-OMNI

Map

Weather


0- 5 10 15 20 25 30 35+ Temperature / °C

Clouds and Precipitation
Forecast for 2024-02-23 12:00 UTC. Updated 4 hours ago

Ground ~20,000 ft ~40,000 ft Winds

METAR

KEYW 231253Z 20011KT 10SM BKN050 22/14 A2999 RMK AO2 SLP162 T02220144 $

TAF

KEYW 231125Z 2312/2412 19009KT P6SM SCT035 FM231800 23012G19KT P6SM FEW030

Frequencies

Unicom 122.95 MHz Key West Unicom
Tower 118.20 MHz Key West Tower
Approach 124.02 MHz Navy Key West Approach
Ground 121.90 MHz Key West Ground
Recorded 119.67 MHz ATIS
Warning: Do not use this data for real-world aviation or navigation. No guarantee of current accuracy is given.